Time;durP1;ratioP1;P1;durP2;ratioP2;P2;SDS_P1;SDS_P2;PMS_P1;PMS_P2;Temp;Humidity;BMP_temperature;BMP_pressure;BME280_temperature;BME280_humidity;BME280_pressure;Samples;Min_cycle;Max_cycle;Signal;HPM_P1;HPM_P2
2021/12/25 00:01:10;;;;;;;1.90;1.43;;;7.50;99.90;;;;;;5063339;28;20214;-68
2021/12/25 00:03:38;;;;;;;2.27;1.70;;;7.50;99.90;;;;;;5059375;28;20594;-69
2021/12/25 00:06:06;;;;;;;2.33;1.57;;;7.50;99.90;;;;;;5063639;28;20206;-69
2021/12/25 00:08:33;;;;;;;8.13;1.93;;;7.40;99.90;;;;;;5053462;28;20200;-69
2021/12/25 00:11:01;;;;;;;5.03;1.80;;;7.40;99.90;;;;;;5041886;28;20237;-69
2021/12/25 00:13:28;;;;;;;4.13;1.70;;;7.30;99.90;;;;;;5059010;28;20186;-69
2021/12/25 00:15:54;;;;;;;3.23;1.93;;;7.40;99.90;;;;;;5041527;28;20726;-69
2021/12/25 00:18:23;;;;;;;5.63;2.20;;;7.40;99.90;;;;;;5039454;28;20188;-69
2021/12/25 00:20:50;;;;;;;3.40;1.83;;;7.40;99.90;;;;;;5061301;28;20228;-69
2021/12/25 00:23:16;;;;;;;3.77;2.00;;;7.30;99.90;;;;;;5058773;28;20198;-69
2021/12/25 00:25:51;;;;;;;4.97;1.63;;;7.30;99.90;;;;;;5045605;28;20265;-69
2021/12/25 00:28:48;;;;;;;2.17;1.70;;;7.30;99.90;;;;;;5044817;28;20275;-69
2021/12/25 00:36:16;;;;;;;4.23;1.70;;;7.30;99.90;;;;;;5036874;28;20207;-69
2021/12/25 00:38:43;;;;;;;2.90;1.70;;;7.30;99.90;;;;;;5056679;28;20226;-69
2021/12/25 00:41:13;;;;;;;4.10;2.17;;;7.30;99.90;;;;;;5051059;28;20224;-69
2021/12/25 00:43:40;;;;;;;4.43;2.37;;;7.40;99.90;;;;;;5060741;28;20191;-69
2021/12/25 00:46:06;;;;;;;3.30;1.73;;;7.40;99.90;;;;;;5041736;28;20687;-69
2021/12/25 00:48:33;;;;;;;3.30;1.80;;;7.40;99.90;;;;;;5042919;28;21013;-69
2021/12/25 00:51:00;;;;;;;4.13;1.97;;;7.30;99.90;;;;;;5031959;28;20310;-69
2021/12/25 00:53:26;;;;;;;5.27;1.93;;;7.40;99.90;;;;;;5049184;28;20290;-69
2021/12/25 00:55:53;;;;;;;2.57;1.90;;;7.40;99.90;;;;;;5049526;28;20232;-68
2021/12/25 00:58:19;;;;;;;4.50;1.70;;;7.50;99.90;;;;;;5046995;28;20555;-69
2021/12/25 01:00:46;;;;;;;2.47;1.47;;;7.50;99.90;;;;;;5059232;28;20299;-69
2021/12/25 01:03:13;;;;;;;3.30;1.60;;;7.50;99.90;;;;;;5032894;28;20688;-69
2021/12/25 01:05:40;;;;;;;8.60;1.73;;;7.50;99.90;;;;;;5053681;28;20203;-68
2021/12/25 01:08:07;;;;;;;3.80;1.83;;;7.50;99.90;;;;;;5061792;28;20218;-69
2021/12/25 01:10:35;;;;;;;4.60;1.73;;;7.50;99.90;;;;;;5071112;28;20194;-69
2021/12/25 01:29:24;;;;;;;2.60;1.90;;;7.60;99.90;;;;;;5047543;28;20245;-69
2021/12/25 01:32:24;;;;;;;5.90;1.90;;;7.60;99.90;;;;;;5043538;28;20258;-69
2021/12/25 01:35:06;;;;;;;4.17;1.90;;;7.60;99.90;;;;;;5056061;28;20273;-69
2021/12/25 01:37:48;;;;;;;6.20;1.93;;;7.60;99.90;;;;;;5054639;28;20903;-69
2021/12/25 01:40:56;;;;;;;2.90;1.90;;;7.60;99.90;;;;;;5052205;28;20635;-69
2021/12/25 01:48:40;;;;;;;2.50;1.77;;;7.60;99.90;;;;;;5051912;28;20190;-69
2021/12/25 01:51:07;;;;;;;3.47;1.80;;;7.60;99.90;;;;;;5029977;28;20300;-69
2021/12/25 01:53:33;;;;;;;3.67;1.67;;;7.60;99.90;;;;;;5051346;28;20207;-69
2021/12/25 01:56:02;;;;;;;3.13;1.60;;;7.60;99.90;;;;;;5062874;28;21017;-69
2021/12/25 01:58:28;;;;;;;2.93;2.13;;;7.60;99.90;;;;;;5068506;28;20226;-69
2021/12/25 02:00:57;;;;;;;3.00;1.73;;;7.60;99.90;;;;;;5045648;28;20219;-69
2021/12/25 02:03:27;;;;;;;3.00;2.00;;;7.60;99.90;;;;;;5060114;28;20202;-68
2021/12/25 02:05:56;;;;;;;3.97;1.87;;;7.60;99.90;;;;;;5037256;28;20908;-69
2021/12/25 02:08:24;;;;;;;5.10;1.77;;;7.60;99.90;;;;;;5033400;28;20195;-69
2021/12/25 02:10:50;;;;;;;5.20;1.90;;;7.70;99.90;;;;;;5069027;28;20204;-69
2021/12/25 02:13:19;;;;;;;4.27;1.90;;;7.70;99.90;;;;;;5062445;28;20252;-69
2021/12/25 02:15:50;;;;;;;5.83;1.80;;;7.60;99.90;;;;;;5061081;28;20753;-69
2021/12/25 02:18:44;;;;;;;2.80;1.80;;;7.70;99.90;;;;;;5036889;28;20637;-69
2021/12/25 02:21:17;;;;;;;7.23;1.87;;;7.60;99.90;;;;;;5047333;28;20228;-69
2021/12/25 02:23:44;;;;;;;2.90;1.47;;;7.60;99.90;;;;;;5041850;28;20192;-68
2021/12/25 02:26:11;;;;;;;2.40;1.90;;;7.40;99.90;;;;;;5059878;28;20958;-68
2021/12/25 02:28:38;;;;;;;3.80;1.60;;;7.40;99.90;;;;;;5043922;28;20183;-69
2021/12/25 02:31:13;;;;;;;3.70;1.90;;;7.40;99.90;;;;;;5046327;28;20208;-69
2021/12/25 02:33:40;;;;;;;5.03;2.07;;;7.40;99.90;;;;;;5061054;28;20226;-68
2021/12/25 02:36:12;;;;;;;2.70;1.90;;;7.40;99.90;;;;;;5024630;28;20303;-69
2021/12/25 02:38:39;;;;;;;2.53;1.60;;;7.40;99.90;;;;;;5046054;28;20198;-69
2021/12/25 02:41:07;;;;;;;5.07;1.67;;;7.40;99.90;;;;;;5046763;28;20215;-69
2021/12/25 02:43:34;;;;;;;5.60;1.77;;;7.40;99.90;;;;;;5066160;28;20199;-69
2021/12/25 02:46:04;;;;;;;3.20;1.50;;;7.40;99.90;;;;;;5051593;28;20230;-69
2021/12/25 02:48:36;;;;;;;3.90;2.03;;;7.40;99.90;;;;;;5061208;28;20224;-69
2021/12/25 02:51:07;;;;;;;3.53;1.50;;;7.40;99.90;;;;;;5049600;28;20195;-69
2021/12/25 02:53:35;;;;;;;6.33;1.70;;;7.40;99.90;;;;;;5015122;28;20204;-69
2021/12/25 02:56:02;;;;;;;3.67;1.90;;;7.40;99.90;;;;;;5061496;28;20267;-68
2021/12/25 02:58:28;;;;;;;4.13;1.80;;;7.40;99.90;;;;;;5052310;28;20199;-69
2021/12/25 03:01:02;;;;;;;4.73;2.17;;;7.40;99.90;;;;;;5066973;28;20707;-69
2021/12/25 03:03:28;;;;;;;3.93;1.90;;;7.40;99.90;;;;;;5078119;28;20233;-69
2021/12/25 03:05:54;;;;;;;5.30;1.90;;;7.40;99.90;;;;;;5052697;28;20196;-69
2021/12/25 03:08:21;;;;;;;2.83;1.60;;;7.40;99.90;;;;;;5024393;28;20196;-69
2021/12/25 03:10:48;;;;;;;3.30;1.80;;;7.40;99.90;;;;;;5052708;28;20596;-69
2021/12/25 03:13:29;;;;;;;2.60;1.70;;;7.40;99.90;;;;;;5041210;28;20861;-69
2021/12/25 03:15:56;;;;;;;4.80;2.10;;;7.40;99.90;;;;;;5066583;28;20206;-70
2021/12/25 03:18:33;;;;;;;3.87;1.80;;;7.40;99.90;;;;;;5054263;28;20245;-69
2021/12/25 03:21:03;;;;;;;4.17;1.70;;;7.30;99.90;;;;;;5036133;28;20220;-68
2021/12/25 03:23:33;;;;;;;6.93;1.87;;;7.30;99.90;;;;;;5045279;28;20200;-69
2021/12/25 03:26:03;;;;;;;5.03;2.43;;;7.40;99.90;;;;;;5055451;28;20290;-70
2021/12/25 03:28:33;;;;;;;4.50;1.70;;;7.40;99.90;;;;;;5060025;28;20249;-69
2021/12/25 03:31:08;;;;;;;2.70;1.70;;;7.40;99.90;;;;;;5042693;28;20207;-69
2021/12/25 03:33:34;;;;;;;5.30;2.03;;;7.40;99.90;;;;;;5043097;28;20191;-69
2021/12/25 03:36:01;;;;;;;5.57;1.63;;;7.50;99.90;;;;;;5045580;28;20214;-69
2021/12/25 03:38:29;;;;;;;2.70;1.87;;;7.40;99.90;;;;;;5060541;28;20736;-70
2021/12/25 03:40:55;;;;;;;4.17;2.10;;;7.40;99.90;;;;;;5067418;28;20218;-68
2021/12/25 03:43:22;;;;;;;3.73;1.87;;;7.50;99.90;;;;;;5066350;28;20195;-69
2021/12/25 03:45:50;;;;;;;6.50;1.90;;;7.50;99.90;;;;;;5067392;28;20202;-69
2021/12/25 03:48:42;;;;;;;2.97;1.80;;;7.50;99.90;;;;;;5066667;28;20199;-68
2021/12/25 03:59:10;;;;;;;2.97;1.70;;;7.60;99.90;;;;;;5048636;28;20192;-69
2021/12/25 04:04:15;;;;;;;3.73;1.93;;;7.60;99.90;;;;;;5045944;28;20183;-68
2021/12/25 04:06:58;;;;;;;4.23;1.93;;;7.60;99.90;;;;;;5044793;28;20255;-69
2021/12/25 04:09:27;;;;;;;2.40;1.77;;;7.70;99.90;;;;;;5045131;28;20221;-69
2021/12/25 04:12:02;;;;;;;2.80;1.70;;;7.70;99.90;;;;;;5063870;28;20206;-69
2021/12/25 04:14:28;;;;;;;4.33;2.00;;;7.80;99.90;;;;;;5050228;28;20198;-69
2021/12/25 04:16:55;;;;;;;3.47;1.80;;;7.80;99.90;;;;;;5059157;28;20208;-68
2021/12/25 04:19:21;;;;;;;3.67;1.83;;;7.90;99.90;;;;;;5064218;28;20898;-68
2021/12/25 04:22:16;;;;;;;5.20;1.90;;;7.90;99.90;;;;;;5042324;28;20314;-69
2021/12/25 04:24:41;;;;;;;4.60;1.90;;;8.00;99.90;;;;;;5031844;28;20728;-69
2021/12/25 04:27:12;;;;;;;3.23;1.60;;;8.00;99.90;;;;;;5053697;28;20240;-68
2021/12/25 04:29:48;;;;;;;3.03;1.90;;;8.00;99.90;;;;;;5045965;28;20238;-69
2021/12/25 05:02:49;;;;;;;3.10;1.50;;;7.90;99.90;;;;;;5027516;28;20981;-69
2021/12/25 05:05:18;;;;;;;4.93;1.77;;;7.90;99.90;;;;;;5047693;28;20241;-68
2021/12/25 05:07:44;;;;;;;5.17;1.80;;;7.90;99.90;;;;;;5071193;28;20817;-69
2021/12/25 05:10:11;;;;;;;2.00;1.60;;;7.90;99.90;;;;;;5060871;28;20285;-69
2021/12/25 05:12:37;;;;;;;1.90;1.67;;;7.90;99.90;;;;;;5047560;28;20203;-69
2021/12/25 05:15:05;;;;;;;3.97;1.80;;;7.90;99.90;;;;;;5074900;28;20736;-69
2021/12/25 05:17:31;;;;;;;5.13;1.50;;;7.90;99.90;;;;;;5055752;28;20191;-69
2021/12/25 05:19:59;;;;;;;4.73;2.10;;;7.90;99.90;;;;;;5057945;28;20223;-69
2021/12/25 05:22:25;;;;;;;2.90;1.73;;;7.90;99.90;;;;;;5067661;28;20217;-69
2021/12/25 05:24:52;;;;;;;2.77;1.70;;;7.90;99.90;;;;;;5047471;28;20196;-69
2021/12/25 05:27:19;;;;;;;5.23;1.53;;;7.90;99.90;;;;;;5047642;28;20203;-69
2021/12/25 05:29:48;;;;;;;4.53;1.70;;;7.90;99.90;;;;;;5066898;28;20198;-68
2021/12/25 05:32:17;;;;;;;2.50;2.00;;;7.90;99.90;;;;;;5067347;28;20202;-69
2021/12/25 05:34:44;;;;;;;3.33;1.80;;;8.00;99.90;;;;;;5053402;28;20195;-69
2021/12/25 05:37:10;;;;;;;3.40;1.37;;;7.90;99.90;;;;;;5063358;28;20225;-69
2021/12/25 05:39:38;;;;;;;4.13;1.80;;;8.00;99.90;;;;;;5048858;28;20678;-69
2021/12/25 05:42:05;;;;;;;2.80;1.80;;;8.00;99.90;;;;;;5062102;28;20273;-69
2021/12/25 05:44:32;;;;;;;2.63;1.47;;;8.00;99.90;;;;;;5062536;28;20248;-69
2021/12/25 05:47:01;;;;;;;3.17;1.70;;;8.00;99.90;;;;;;5066449;28;20197;-69
2021/12/25 05:49:29;;;;;;;2.43;1.40;;;7.90;99.90;;;;;;5049737;28;20244;-69
2021/12/25 05:51:55;;;;;;;5.70;1.60;;;8.00;99.90;;;;;;5047192;28;20632;-69
2021/12/25 05:54:21;;;;;;;5.93;1.90;;;8.00;99.90;;;;;;5046198;28;20192;-69
2021/12/25 05:56:48;;;;;;;2.50;1.63;;;7.90;99.90;;;;;;5042656;28;20888;-69
2021/12/25 05:59:14;;;;;;;1.77;1.30;;;8.00;99.90;;;;;;5051750;28;20583;-69
2021/12/25 06:01:41;;;;;;;3.03;1.50;;;8.10;99.90;;;;;;5064887;28;20193;-70
2021/12/25 06:04:07;;;;;;;4.07;1.90;;;8.20;99.90;;;;;;5082370;28;20222;-69
2021/12/25 06:06:33;;;;;;;7.37;1.90;;;8.20;99.90;;;;;;5048032;28;20191;-69
2021/12/25 06:09:01;;;;;;;8.83;2.00;;;8.30;99.90;;;;;;5059071;28;20209;-69
2021/12/25 06:11:30;;;;;;;2.47;1.60;;;8.30;99.90;;;;;;5065829;28;20199;-69
2021/12/25 06:14:08;;;;;;;4.80;1.87;;;8.40;99.90;;;;;;5057945;28;20179;-69
2021/12/25 06:16:35;;;;;;;4.50;1.93;;;8.40;99.90;;;;;;5067803;28;20652;-69
2021/12/25 06:19:03;;;;;;;2.60;1.47;;;8.50;99.90;;;;;;5082728;28;20183;-69
2021/12/25 06:21:30;;;;;;;4.80;1.70;;;8.60;99.90;;;;;;5046465;28;20726;-69
2021/12/25 06:23:56;;;;;;;1.90;1.40;;;8.70;99.90;;;;;;5047214;28;20295;-69
2021/12/25 06:26:23;;;;;;;3.83;1.80;;;8.70;99.90;;;;;;5047223;28;20196;-69
2021/12/25 06:28:49;;;;;;;4.23;2.33;;;8.80;99.90;;;;;;5048828;28;20929;-69
2021/12/25 06:31:15;;;;;;;3.50;1.77;;;8.80;99.90;;;;;;5062090;28;20199;-69
2021/12/25 06:33:42;;;;;;;8.10;1.70;;;8.80;99.90;;;;;;5048197;28;20184;-68
2021/12/25 06:36:08;;;;;;;3.57;1.77;;;8.80;99.90;;;;;;5055933;28;20538;-70
2021/12/25 06:38:35;;;;;;;2.63;1.70;;;8.80;99.90;;;;;;5045828;28;20195;-68
2021/12/25 06:41:02;;;;;;;6.83;1.80;;;8.90;99.90;;;;;;5081956;28;20272;-69
2021/12/25 06:43:28;;;;;;;4.03;1.80;;;9.00;99.90;;;;;;5064365;28;20255;-69
2021/12/25 06:45:54;;;;;;;2.57;1.60;;;9.10;99.90;;;;;;5079801;28;20186;-69
2021/12/25 06:48:22;;;;;;;3.63;1.90;;;9.10;99.90;;;;;;5065647;28;20779;-69
2021/12/25 06:50:48;;;;;;;3.27;1.80;;;9.20;99.90;;;;;;5054059;28;20191;-69
2021/12/25 06:53:14;;;;;;;4.60;1.80;;;9.20;99.90;;;;;;5054857;28;20298;-69
2021/12/25 06:55:41;;;;;;;4.10;1.60;;;9.30;99.90;;;;;;5063941;28;20199;-69
2021/12/25 06:58:08;;;;;;;3.03;1.60;;;9.30;99.90;;;;;;5036590;28;20184;-69
2021/12/25 07:00:34;;;;;;;5.50;1.83;;;9.30;99.90;;;;;;5053605;28;20210;-69
2021/12/25 07:03:00;;;;;;;2.70;1.50;;;9.40;99.90;;;;;;5056687;28;20239;-69
2021/12/25 07:05:27;;;;;;;4.13;1.70;;;9.40;99.90;;;;;;5061593;28;20202;-69
2021/12/25 07:07:53;;;;;;;4.83;1.70;;;9.50;99.90;;;;;;5030645;28;20187;-69
2021/12/25 07:10:21;;;;;;;4.83;1.90;;;9.60;99.90;;;;;;5058949;28;20187;-70
2021/12/25 07:12:49;;;;;;;2.77;1.60;;;9.60;99.90;;;;;;5059782;28;20655;-70
2021/12/25 07:15:16;;;;;;;3.87;1.97;;;9.70;99.90;;;;;;5056285;28;20199;-69
2021/12/25 07:17:43;;;;;;;6.73;1.80;;;9.70;99.90;;;;;;5080195;28;20198;-69
2021/12/25 07:20:11;;;;;;;3.30;1.87;;;9.80;99.90;;;;;;5042921;28;20227;-69
2021/12/25 07:22:37;;;;;;;3.73;2.30;;;9.80;99.90;;;;;;5055378;28;20193;-69
2021/12/25 07:25:07;;;;;;;7.10;1.90;;;9.80;99.90;;;;;;5060224;28;20188;-69
2021/12/25 07:27:34;;;;;;;2.50;1.60;;;9.90;99.90;;;;;;5058144;28;20218;-69
2021/12/25 07:30:02;;;;;;;5.93;2.00;;;9.90;99.90;;;;;;5056682;28;20203;-69
2021/12/25 07:32:29;;;;;;;4.87;1.97;;;9.90;99.90;;;;;;5046519;28;20192;-69
2021/12/25 07:34:56;;;;;;;2.57;1.80;;;9.90;99.90;;;;;;5055247;28;20306;-69
2021/12/25 07:37:25;;;;;;;4.00;1.87;;;10.00;99.90;;;;;;5064794;28;20240;-69
2021/12/25 07:39:51;;;;;;;4.07;1.90;;;10.00;99.90;;;;;;5064683;28;20205;-69
2021/12/25 07:42:18;;;;;;;5.53;1.70;;;10.10;99.90;;;;;;5066478;28;20183;-69
2021/12/25 07:44:44;;;;;;;3.10;1.83;;;10.20;99.90;;;;;;5051619;28;20933;-69
2021/12/25 07:47:11;;;;;;;3.87;2.07;;;10.20;99.90;;;;;;5049531;28;20632;-69
2021/12/25 07:49:38;;;;;;;5.13;1.93;;;10.20;99.90;;;;;;5055088;28;20186;-69
2021/12/25 07:52:05;;;;;;;8.30;1.90;;;10.20;99.90;;;;;;5044549;28;20203;-69
2021/12/25 07:54:32;;;;;;;6.90;1.60;;;10.20;99.90;;;;;;5065188;28;20198;-69
2021/12/25 07:56:58;;;;;;;4.80;2.13;;;10.20;99.90;;;;;;5048193;28;20707;-69
2021/12/25 07:59:25;;;;;;;3.23;1.80;;;10.20;99.90;;;;;;5042013;28;20269;-69
2021/12/25 08:01:53;;;;;;;2.83;1.80;;;10.10;99.90;;;;;;5037624;28;20217;-69
2021/12/25 08:04:21;;;;;;;3.03;1.60;;;10.10;99.90;;;;;;5065167;28;20195;-69
2021/12/25 08:06:48;;;;;;;5.73;1.70;;;10.20;99.90;;;;;;5065398;28;20655;-69
2021/12/25 08:09:18;;;;;;;6.03;2.10;;;10.20;99.90;;;;;;5075358;28;20193;-69
2021/12/25 08:11:44;;;;;;;3.43;1.50;;;10.20;99.90;;;;;;5068343;28;20193;-69
2021/12/25 08:14:10;;;;;;;4.57;2.10;;;10.30;99.90;;;;;;5068446;28;20282;-69
2021/12/25 08:16:38;;;;;;;9.03;1.97;;;10.40;99.90;;;;;;5066851;28;20820;-69
2021/12/25 08:19:04;;;;;;;7.00;2.07;;;10.40;99.90;;;;;;5068478;28;20209;-69
2021/12/25 08:21:31;;;;;;;6.13;1.70;;;10.40;99.90;;;;;;5062322;28;20689;-69
2021/12/25 08:23:58;;;;;;;5.57;1.70;;;10.50;99.90;;;;;;5067298;28;20187;-69
2021/12/25 08:26:24;;;;;;;3.30;1.40;;;10.60;99.90;;;;;;5070073;28;20175;-70
2021/12/25 08:28:51;;;;;;;6.33;1.57;;;10.60;99.90;;;;;;5058955;28;20196;-69
2021/12/25 08:31:17;;;;;;;2.60;1.53;;;10.70;99.90;;;;;;5059519;28;20294;-69
2021/12/25 08:33:43;;;;;;;6.63;1.97;;;10.70;99.90;;;;;;5052764;28;20197;-69
2021/12/25 08:36:10;;;;;;;3.23;2.10;;;10.70;99.90;;;;;;5050795;28;20578;-69
2021/12/25 08:38:39;;;;;;;3.20;1.70;;;10.70;99.90;;;;;;5060444;28;20516;-69
2021/12/25 08:41:05;;;;;;;3.20;1.70;;;10.80;99.90;;;;;;5044191;28;20204;-69
2021/12/25 08:43:35;;;;;;;2.80;1.40;;;10.90;99.90;;;;;;5063748;28;20191;-69
2021/12/25 08:46:16;;;;;;;5.80;1.63;;;10.90;99.90;;;;;;5084979;28;20182;-69
2021/12/25 08:48:43;;;;;;;3.13;1.60;;;10.90;99.90;;;;;;5052895;28;20195;-69
2021/12/25 08:51:11;;;;;;;6.33;1.63;;;10.90;99.90;;;;;;5050435;28;20194;-70
2021/12/25 08:53:38;;;;;;;2.80;1.60;;;10.90;99.90;;;;;;5067639;28;20578;-69
2021/12/25 08:56:04;;;;;;;4.10;1.70;;;11.10;99.90;;;;;;5067671;28;20662;-69
2021/12/25 08:58:36;;;;;;;3.17;1.60;;;11.30;99.90;;;;;;5067949;28;20309;-69
2021/12/25 09:01:06;;;;;;;4.33;2.03;;;11.30;99.90;;;;;;5044069;28;21211;-70
2021/12/25 09:03:33;;;;;;;4.27;1.63;;;11.30;99.90;;;;;;5052715;28;20187;-70
2021/12/25 09:06:03;;;;;;;4.27;1.83;;;11.30;99.90;;;;;;5048177;28;20297;-70
2021/12/25 09:08:30;;;;;;;5.33;1.80;;;11.30;99.90;;;;;;5067105;28;20216;-69
2021/12/25 09:10:57;;;;;;;5.20;1.90;;;11.30;99.90;;;;;;5066061;28;20190;-69
2021/12/25 09:13:23;;;;;;;6.23;1.53;;;11.30;99.90;;;;;;5067196;28;20186;-70
2021/12/25 09:15:50;;;;;;;4.13;1.47;;;11.30;99.90;;;;;;5068633;28;20198;-69
2021/12/25 09:18:17;;;;;;;3.13;1.40;;;11.30;99.90;;;;;;5064829;28;20195;-69
2021/12/25 09:20:43;;;;;;;5.27;1.50;;;11.40;99.90;;;;;;5033441;28;20211;-70
2021/12/25 09:23:10;;;;;;;2.67;1.60;;;11.40;99.90;;;;;;5048424;28;20270;-69
2021/12/25 09:25:37;;;;;;;1.83;1.50;;;11.50;99.90;;;;;;5065009;28;20251;-69
2021/12/25 09:28:04;;;;;;;6.70;2.07;;;11.60;99.90;;;;;;5045185;28;20270;-69
2021/12/25 09:30:30;;;;;;;5.23;1.63;;;11.70;99.90;;;;;;5057512;28;20207;-69
2021/12/25 09:32:57;;;;;;;3.23;1.57;;;11.70;99.90;;;;;;5048270;28;20203;-70
2021/12/25 09:35:24;;;;;;;5.00;1.80;;;11.80;99.90;;;;;;5075622;28;20191;-70
2021/12/25 09:37:50;;;;;;;2.03;1.70;;;11.80;99.90;;;;;;5046865;28;20191;-69
2021/12/25 09:40:16;;;;;;;4.57;1.60;;;11.70;99.90;;;;;;5047710;28;20222;-69
2021/12/25 09:42:44;;;;;;;3.00;1.70;;;11.70;99.90;;;;;;5063966;28;20225;-69
2021/12/25 09:45:12;;;;;;;6.00;1.60;;;11.80;99.90;;;;;;5068106;28;20779;-69
2021/12/25 09:47:39;;;;;;;3.97;1.80;;;11.80;99.90;;;;;;5068047;28;20632;-70
2021/12/25 09:50:07;;;;;;;2.60;1.43;;;11.80;99.90;;;;;;5055915;28;20551;-69
2021/12/25 09:52:34;;;;;;;5.03;1.70;;;11.80;99.90;;;;;;5046596;28;20206;-69
2021/12/25 09:55:01;;;;;;;5.80;2.00;;;11.80;99.90;;;;;;5052987;28;20191;-69
2021/12/25 09:57:27;;;;;;;3.30;1.67;;;11.90;99.90;;;;;;5049913;28;20273;-69
2021/12/25 09:59:54;;;;;;;2.43;1.50;;;11.90;99.90;;;;;;5038410;28;20560;-70
2021/12/25 10:02:21;;;;;;;7.07;2.03;;;11.90;99.90;;;;;;5052585;28;20199;-69
2021/12/25 10:04:56;;;;;;;4.07;1.40;;;12.00;99.90;;;;;;5036183;28;20188;-69
2021/12/25 10:07:30;;;;;;;5.10;1.50;;;12.00;99.90;;;;;;5047138;28;20225;-69
2021/12/25 10:10:13;;;;;;;5.33;1.50;;;12.10;99.90;;;;;;5012550;28;20686;-70
2021/12/25 10:12:45;;;;;;;6.40;1.87;;;12.10;99.90;;;;;;5040699;28;20227;-70
2021/12/25 10:15:14;;;;;;;5.00;1.63;;;12.10;99.90;;;;;;5043402;28;20215;-69
2021/12/25 10:17:51;;;;;;;5.60;1.83;;;12.20;99.90;;;;;;5032106;28;20191;-69
2021/12/25 10:20:31;;;;;;;5.53;2.43;;;12.20;99.90;;;;;;5039455;28;20222;-69
2021/12/25 10:23:07;;;;;;;2.30;1.60;;;12.30;99.90;;;;;;5036155;28;20195;-69
2021/12/25 10:25:43;;;;;;;3.40;1.80;;;12.30;99.90;;;;;;5050444;28;20518;-69
2021/12/25 10:28:11;;;;;;;3.33;1.57;;;12.40;99.90;;;;;;5056949;28;20237;-69
2021/12/25 10:31:08;;;;;;;5.17;2.10;;;12.50;99.90;;;;;;5046987;28;20913;-68
2021/12/25 10:33:50;;;;;;;2.70;1.63;;;12.50;99.90;;;;;;5035740;28;20268;-69
2021/12/25 10:36:36;;;;;;;8.37;2.00;;;12.60;99.90;;;;;;5045340;28;20195;-69
2021/12/25 10:39:08;;;;;;;9.73;1.67;;;12.70;99.90;;;;;;5053896;28;20214;-68
2021/12/25 10:41:40;;;;;;;2.80;1.50;;;12.60;99.90;;;;;;5033244;28;20239;-68
2021/12/25 10:44:13;;;;;;;11.60;2.63;;;12.70;99.90;;;;;;5044827;28;20703;-69
2021/12/25 10:46:58;;;;;;;2.93;1.50;;;12.80;99.90;;;;;;5041212;28;20318;-69
2021/12/25 10:49:31;;;;;;;5.00;1.80;;;12.80;99.90;;;;;;5031373;28;20183;-69
2021/12/25 10:52:16;;;;;;;4.20;1.80;;;14.20;99.90;;;;;;5037073;28;20619;-69
2021/12/25 10:54:55;;;;;;;2.90;1.67;;;13.60;99.90;;;;;;5035931;28;20184;-69
2021/12/25 10:57:48;;;;;;;4.47;2.03;;;13.30;99.90;;;;;;5052381;28;20226;-68
2021/12/25 11:00:30;;;;;;;4.93;1.57;;;13.00;99.90;;;;;;5033685;28;20289;-68
2021/12/25 11:03:10;;;;;;;4.67;1.60;;;12.70;99.90;;;;;;5050973;28;20318;-70
2021/12/25 11:05:48;;;;;;;3.57;2.20;;;12.50;99.90;;;;;;5039834;28;20187;-69
2021/12/25 11:08:24;;;;;;;4.67;1.73;;;12.40;99.90;;;;;;5052820;28;20203;-69
2021/12/25 11:10:58;;;;;;;6.23;2.20;;;12.30;99.90;;;;;;5054958;28;20226;-69
2021/12/25 11:13:36;;;;;;;3.73;2.00;;;12.30;99.90;;;;;;5033343;28;20215;-69
2021/12/25 11:16:35;;;;;;;2.87;1.77;;;12.30;99.90;;;;;;5036292;28;20304;-69
2021/12/25 11:19:27;;;;;;;4.10;2.07;;;12.30;99.90;;;;;;5033107;28;20230;-70
2021/12/25 11:21:55;;;;;;;6.73;2.00;;;12.20;99.90;;;;;;5056190;28;20754;-69
2021/12/25 11:24:36;;;;;;;4.03;2.20;;;12.20;99.90;;;;;;5035006;28;20265;-68
2021/12/25 11:27:06;;;;;;;6.47;2.10;;;12.30;99.90;;;;;;5054039;28;20194;-68
2021/12/25 11:29:37;;;;;;;3.23;2.20;;;12.50;99.90;;;;;;5044391;28;20195;-69
2021/12/25 11:32:08;;;;;;;5.63;2.40;;;12.70;99.90;;;;;;5044314;28;20646;-69
2021/12/25 11:34:35;;;;;;;3.23;2.10;;;12.80;99.90;;;;;;5056172;28;20640;-69
2021/12/25 11:37:02;;;;;;;4.67;2.00;;;12.80;99.90;;;;;;5056958;28;21003;-69
2021/12/25 11:39:32;;;;;;;3.53;2.00;;;12.80;99.90;;;;;;5043308;28;20206;-69
2021/12/25 11:42:09;;;;;;;2.97;2.00;;;12.80;99.90;;;;;;5045084;28;20191;-69
2021/12/25 11:44:55;;;;;;;3.10;1.83;;;12.90;99.90;;;;;;5062585;28;20738;-68
2021/12/25 11:47:38;;;;;;;5.77;2.17;;;12.80;99.90;;;;;;5062974;28;20217;-68
2021/12/25 11:50:32;;;;;;;4.53;2.13;;;12.80;99.90;;;;;;5042223;28;20223;-69
2021/12/25 11:53:23;;;;;;;4.77;2.10;;;12.80;99.90;;;;;;5030747;28;20239;-68
2021/12/25 11:58:53;;;;;;;6.30;2.20;;;13.00;99.90;;;;;;5043682;28;20283;-68
2021/12/25 12:01:34;;;;;;;4.03;2.20;;;13.00;99.90;;;;;;5038915;28;20691;-69
2021/12/25 12:04:11;;;;;;;4.97;2.20;;;13.10;99.90;;;;;;5038644;28;20225;-68
2021/12/25 12:06:47;;;;;;;3.37;1.70;;;13.00;99.90;;;;;;5051765;28;20256;-68
2021/12/25 12:09:18;;;;;;;3.43;1.80;;;13.10;99.90;;;;;;5052266;28;20187;-70
2021/12/25 12:11:51;;;;;;;3.80;1.87;;;13.20;99.90;;;;;;5057237;28;20199;-70
2021/12/25 12:14:28;;;;;;;7.40;2.43;;;13.20;99.90;;;;;;5063405;28;20638;-68
2021/12/25 12:17:25;;;;;;;4.97;1.90;;;13.30;99.90;;;;;;5068522;28;20255;-69
2021/12/25 12:19:55;;;;;;;4.70;1.67;;;13.40;99.90;;;;;;5055303;28;20211;-68
2021/12/25 12:28:00;;;;;;;3.10;1.80;;;13.50;99.90;;;;;;5063785;28;20215;-69
2021/12/25 12:30:33;;;;;;;5.43;1.77;;;13.60;99.90;;;;;;5060570;28;20286;-68
2021/12/25 12:33:23;;;;;;;8.07;1.80;;;13.60;99.90;;;;;;5064760;28;20214;-69
2021/12/25 12:35:54;;;;;;;2.83;1.90;;;13.60;99.90;;;;;;5028398;28;20247;-69
2021/12/25 12:38:40;;;;;;;3.87;1.80;;;13.70;99.90;;;;;;5056212;28;20234;-68
2021/12/25 12:41:53;;;;;;;3.20;1.67;;;13.70;99.90;;;;;;5058848;28;20243;-69
2021/12/25 12:44:31;;;;;;;2.80;1.63;;;13.70;99.90;;;;;;5038567;28;21006;-69
2021/12/25 12:47:19;;;;;;;4.77;1.80;;;13.80;99.90;;;;;;5063498;28;20229;-70
2021/12/25 12:49:45;;;;;;;2.33;1.80;;;13.80;99.90;;;;;;5040366;28;20196;-70
2021/12/25 12:52:20;;;;;;;2.53;1.90;;;13.70;99.90;;;;;;5055536;28;20199;-69
2021/12/25 12:54:59;;;;;;;3.67;1.47;;;13.60;99.90;;;;;;5050819;28;20199;-70
2021/12/25 12:57:33;;;;;;;7.00;2.33;;;13.60;99.90;;;;;;5052662;28;20205;-68
2021/12/25 13:00:26;;;;;;;1.90;1.70;;;13.50;99.90;;;;;;5042844;28;20225;-68
2021/12/25 13:02:56;;;;;;;5.30;1.80;;;13.60;99.90;;;;;;5026852;28;20199;-68
2021/12/25 13:05:30;;;;;;;3.30;1.30;;;13.60;99.90;;;;;;5043382;28;20196;-68
2021/12/25 13:07:58;;;;;;;4.10;1.70;;;13.50;99.90;;;;;;5052895;28;20188;-69
2021/12/25 13:10:36;;;;;;;5.00;2.47;;;13.50;99.90;;;;;;5058394;28;20659;-68
2021/12/25 13:13:30;;;;;;;4.77;2.23;;;13.50;99.90;;;;;;5039952;28;20201;-69
2021/12/25 13:16:08;;;;;;;3.97;1.70;;;13.50;99.90;;;;;;5035481;28;20294;-70
2021/12/25 13:18:44;;;;;;;2.07;1.53;;;13.50;99.90;;;;;;5047657;28;20711;-68
2021/12/25 13:21:22;;;;;;;4.50;2.00;;;13.50;99.90;;;;;;5053507;28;20265;-70
2021/12/25 13:23:55;;;;;;;5.43;2.20;;;13.50;99.90;;;;;;5050157;28;20227;-69
2021/12/25 13:26:36;;;;;;;4.07;2.30;;;13.50;99.90;;;;;;5053159;28;20238;-69
2021/12/25 13:29:07;;;;;;;3.73;2.63;;;13.40;99.90;;;;;;5040076;28;20195;-69
2021/12/25 13:31:37;;;;;;;5.60;2.30;;;13.30;99.90;;;;;;5057417;28;20195;-69
2021/12/25 13:34:12;;;;;;;3.70;2.03;;;13.30;99.90;;;;;;5040251;28;20205;-69
2021/12/25 13:36:40;;;;;;;4.30;2.20;;;13.20;99.90;;;;;;5045806;28;20314;-69
2021/12/25 13:39:16;;;;;;;2.70;1.53;;;13.10;99.90;;;;;;5037605;28;20204;-68
2021/12/25 13:42:05;;;;;;;2.33;1.40;;;13.10;99.90;;;;;;5038676;28;21070;-69
2021/12/25 13:44:35;;;;;;;2.77;1.50;;;13.00;99.90;;;;;;5036724;28;20192;-68
2021/12/25 13:47:06;;;;;;;2.30;1.50;;;13.00;99.90;;;;;;5034203;28;20222;-68
2021/12/25 13:49:38;;;;;;;1.67;1.50;;;12.90;99.90;;;;;;5036853;28;20184;-69
2021/12/25 13:52:19;;;;;;;2.47;1.80;;;12.80;99.90;;;;;;5053846;28;20987;-69
2021/12/25 13:54:59;;;;;;;3.90;1.63;;;12.80;99.90;;;;;;5054580;28;20218;-69
2021/12/25 13:57:28;;;;;;;2.00;1.43;;;12.70;99.90;;;;;;5055889;28;20192;-69
2021/12/25 14:00:01;;;;;;;2.20;1.70;;;12.70;99.90;;;;;;5039469;28;20222;-69
2021/12/25 14:02:29;;;;;;;4.70;1.70;;;12.70;99.90;;;;;;5044756;28;20231;-68
2021/12/25 14:04:57;;;;;;;4.67;1.57;;;12.60;99.90;;;;;;5062894;28;20219;-68
2021/12/25 14:07:27;;;;;;;2.60;1.63;;;12.50;99.90;;;;;;5034798;28;20283;-68
2021/12/25 14:10:15;;;;;;;2.70;1.63;;;12.40;99.90;;;;;;5049880;28;20561;-69
2021/12/25 14:12:49;;;;;;;2.37;1.63;;;12.40;99.90;;;;;;5042118;28;20201;-69
2021/12/25 14:15:31;;;;;;;5.60;1.80;;;12.30;99.90;;;;;;5055514;28;20202;-68
2021/12/25 14:18:01;;;;;;;2.43;1.70;;;12.30;99.90;;;;;;5049675;28;20219;-69
2021/12/25 14:20:37;;;;;;;3.93;1.80;;;12.30;99.90;;;;;;5041421;28;20307;-68
2021/12/25 14:23:18;;;;;;;3.73;1.50;;;12.20;99.90;;;;;;5035288;28;20202;-68
2021/12/25 14:25:56;;;;;;;3.37;1.70;;;12.10;99.90;;;;;;5042389;28;20188;-69
2021/12/25 14:28:33;;;;;;;4.53;1.90;;;12.00;99.90;;;;;;5042692;28;20257;-69
2021/12/25 14:31:08;;;;;;;2.27;1.63;;;11.90;99.90;;;;;;5039902;28;20724;-70